Time;durP1;ratioP1;P1;durP2;ratioP2;P2;SDS_P1;SDS_P2;PMS_P1;PMS_P2;Temp;Humidity;BMP_temperature;BMP_pressure;BME280_temperature;BME280_humidity;BME280_pressure;Samples;Min_cycle;Max_cycle;Signal;HPM_P1;HPM_P2
2023/03/25 06:02:20;;;;;;;;;4.33;0.00;;;;;-147.14;100.00;58812.66;5063853;22;1153595;-66
2023/03/25 06:04:49;;;;;;;;;4.00;1.00;;;;;-147.14;100.00;58812.66;5018225;28;45436;-66
2023/03/25 06:07:21;;;;;;;;;2.00;1.67;;;;;-147.14;100.00;58812.66;5009032;28;45496;-67
2023/03/25 06:09:47;;;;;;;;;0.00;0.00;;;;;-147.14;100.00;58812.66;5006371;28;45538;-65
2023/03/25 06:12:18;;;;;;;;;2.00;1.00;;;;;-147.14;100.00;58812.66;5029243;28;45510;-65
2023/03/25 06:14:44;;;;;;;;;1.00;1.00;;;;;-147.14;100.00;58812.66;5023127;28;45371;-65
2023/03/25 06:17:21;;;;;;;;;3.67;2.00;;;;;-147.14;100.00;58812.66;5012780;28;45424;-66
2023/03/25 06:19:47;;;;;;;;;2.00;0.33;;;;;-147.14;100.00;58812.66;5014728;28;45393;-65
2023/03/25 06:22:13;;;;;;;;;2.67;0.00;;;;;-147.14;100.00;58812.66;5030121;28;45681;-66
2023/03/25 06:24:39;;;;;;;;;5.00;1.00;;;;;-147.14;100.00;58812.66;5010162;28;45499;-67
2023/03/25 06:27:07;;;;;;;;;2.00;0.67;;;;;-147.14;100.00;58812.66;5014963;28;45501;-66
2023/03/25 06:29:35;;;;;;;;;2.00;2.00;;;;;-147.14;100.00;58812.66;5009066;28;45366;-66
2023/03/25 06:32:01;;;;;;;;;2.67;1.00;;;;;-147.14;100.00;58812.66;5032501;28;46626;-66
2023/03/25 06:34:27;;;;;;;;;3.33;1.33;;;;;-147.14;100.00;58812.66;5011120;28;45676;-67
2023/03/25 06:36:52;;;;;;;;;1.67;1.67;;;;;-147.14;100.00;58812.66;5035595;28;45656;-65
2023/03/25 06:39:18;;;;;;;;;0.00;0.00;;;;;-147.14;100.00;58812.66;5016194;28;45473;-66
2023/03/25 06:41:44;;;;;;;;;4.00;1.00;;;;;-147.14;100.00;58812.66;5018126;28;46326;-66
2023/03/25 06:44:09;;;;;;;;;3.33;1.67;;;;;-147.14;100.00;58812.66;5020001;28;45915;-66
2023/03/25 06:46:35;;;;;;;;;3.00;1.00;;;;;-147.14;100.00;58812.66;5007765;28;45748;-67
2023/03/25 06:49:01;;;;;;;;;0.00;0.00;;;;;-147.14;100.00;58812.66;5000782;28;45484;-65
2023/03/25 06:51:26;;;;;;;;;7.00;1.00;;;;;-147.14;100.00;58812.66;5016422;28;46072;-66
2023/03/25 06:53:52;;;;;;;;;2.67;1.00;;;;;-147.14;100.00;58812.66;5010994;28;45564;-66
2023/03/25 06:56:17;;;;;;;;;3.00;1.00;;;;;-147.14;100.00;58812.66;5030415;28;45324;-66
2023/03/25 06:58:43;;;;;;;;;3.00;2.00;;;;;-147.14;100.00;58812.66;5020694;28;62976;-66
2023/03/25 07:01:08;;;;;;;;;2.67;1.00;;;;;-147.14;100.00;58812.66;5018233;28;46902;-66
2023/03/25 07:03:36;;;;;;;;;2.00;1.00;;;;;-147.14;100.00;58812.66;5033260;28;45648;-66
2023/03/25 07:06:03;;;;;;;;;1.00;1.00;;;;;-147.14;100.00;58812.66;5025660;28;45400;-66
2023/03/25 07:08:29;;;;;;;;;7.67;1.00;;;;;-147.14;100.00;58812.66;5007964;28;45655;-66
2023/03/25 07:11:06;;;;;;;;;1.00;0.33;;;;;-147.14;100.00;58812.66;5028648;28;46087;-66
2023/03/25 07:13:32;;;;;;;;;1.00;1.00;;;;;-147.14;100.00;58812.66;4994329;28;45806;-66
2023/03/25 07:15:57;;;;;;;;;0.00;0.00;;;;;-147.14;100.00;58812.66;4999256;28;45580;-66
2023/03/25 07:18:23;;;;;;;;;1.00;1.00;;;;;-147.14;100.00;58812.66;5028672;28;45373;-65
2023/03/25 07:20:48;;;;;;;;;0.67;0.67;;;;;-147.14;100.00;58812.66;5018620;28;67597;-66
2023/03/25 07:23:14;;;;;;;;;2.67;1.00;;;;;-147.14;100.00;58812.66;5028150;28;47117;-66
2023/03/25 07:25:39;;;;;;;;;5.00;1.00;;;;;-147.14;100.00;58812.66;4995895;28;46447;-66
2023/03/25 07:28:05;;;;;;;;;2.00;1.00;;;;;-147.14;100.00;58812.66;5014159;28;45535;-66
2023/03/25 07:30:30;;;;;;;;;2.00;1.00;;;;;-147.14;100.00;58812.66;5015501;28;68062;-66
2023/03/25 07:32:55;;;;;;;;;4.67;1.00;;;;;-147.14;100.00;58812.66;5023703;28;55972;-66
2023/03/25 07:35:21;;;;;;;;;3.67;0.33;;;;;-147.14;100.00;58812.66;5010127;28;45574;-67
2023/03/25 07:37:46;;;;;;;;;2.67;1.00;;;;;-147.14;100.00;58812.66;4997985;28;62114;-66
2023/03/25 07:40:12;;;;;;;;;3.00;2.00;;;;;-147.14;100.00;58812.66;5006922;28;56897;-65
2023/03/25 07:42:37;;;;;;;;;9.00;2.00;;;;;-147.14;100.00;58812.66;5013402;28;45530;-65
2023/03/25 07:45:04;;;;;;;;;0.33;0.00;;;;;-147.14;100.00;58812.66;4978878;28;46244;-66
2023/03/25 07:47:30;;;;;;;;;2.00;0.33;;;;;-147.14;100.00;58812.66;5013646;28;45729;-65
2023/03/25 07:49:55;;;;;;;;;2.67;1.00;;;;;-147.14;100.00;58812.66;5022451;28;45664;-66
2023/03/25 07:52:20;;;;;;;;;1.67;1.67;;;;;-147.14;100.00;58812.66;5009186;28;45421;-66
2023/03/25 07:54:46;;;;;;;;;3.00;1.67;;;;;-147.14;100.00;58812.66;5020192;28;45907;-66
2023/03/25 07:57:12;;;;;;;;;2.00;1.00;;;;;-147.14;100.00;58812.66;5018260;28;59675;-65
2023/03/25 07:59:37;;;;;;;;;2.00;2.00;;;;;-147.14;100.00;58812.66;5028225;28;45379;-65
2023/03/25 08:02:02;;;;;;;;;0.67;0.33;;;;;-147.14;100.00;58812.66;5034401;28;45355;-66
2023/03/25 08:04:28;;;;;;;;;3.00;1.67;;;;;-147.14;100.00;58812.66;5024646;28;45592;-66
2023/03/25 08:06:53;;;;;;;;;3.33;2.00;;;;;-147.14;100.00;58812.66;5001706;28;45376;-65
2023/03/25 08:09:18;;;;;;;;;4.00;2.00;;;;;-147.14;100.00;58812.66;5034003;28;70449;-65
2023/03/25 08:11:44;;;;;;;;;1.33;1.00;;;;;-147.14;100.00;58812.66;5011541;28;45358;-66
2023/03/25 08:14:10;;;;;;;;;8.00;6.00;;;;;-147.14;100.00;58812.66;5032457;28;45396;-66
2023/03/25 08:16:35;;;;;;;;;2.67;2.00;;;;;-147.14;100.00;58812.66;5009771;28;45562;-67
2023/03/25 08:19:01;;;;;;;;;1.00;1.00;;;;;-147.14;100.00;58812.66;5029182;28;46499;-66
2023/03/25 08:21:26;;;;;;;;;4.00;1.33;;;;;-147.14;100.00;58812.66;5021396;28;45476;-67
2023/03/25 08:24:01;;;;;;;;;3.67;1.67;;;;;-147.14;100.00;58812.66;5029099;28;45469;-66
2023/03/25 08:26:27;;;;;;;;;1.00;1.00;;;;;-147.14;100.00;58812.66;4997276;28;45533;-67
2023/03/25 08:28:56;;;;;;;;;1.33;1.00;;;;;-147.14;100.00;58812.66;5028872;28;45699;-67
2023/03/25 08:31:25;;;;;;;;;3.67;2.33;;;;;-147.14;100.00;58812.66;5034036;28;45416;-66
2023/03/25 08:33:51;;;;;;;;;2.00;2.00;;;;;-147.14;100.00;58812.66;5032913;28;45503;-67
2023/03/25 08:36:18;;;;;;;;;2.00;1.00;;;;;-147.14;100.00;58812.66;5022293;28;45341;-66
2023/03/25 08:38:47;;;;;;;;;2.00;2.00;;;;;-147.14;100.00;58812.66;5006268;28;46081;-67
2023/03/25 08:41:13;;;;;;;;;8.00;2.67;;;;;-147.14;100.00;58812.66;5006567;28;45542;-67
2023/03/25 08:43:39;;;;;;;;;4.00;1.67;;;;;-147.14;100.00;58812.66;5024207;28;45925;-66
2023/03/25 08:46:04;;;;;;;;;5.67;3.00;;;;;-147.14;100.00;58812.66;5002233;28;45442;-68
2023/03/25 08:48:30;;;;;;;;;5.00;1.00;;;;;-147.14;100.00;58812.66;5008429;28;47985;-67
2023/03/25 08:50:56;;;;;;;;;2.00;1.00;;;;;-147.14;100.00;58812.66;5003188;28;45876;-66
2023/03/25 08:53:21;;;;;;;;;2.00;2.00;;;;;-147.14;100.00;58812.66;4990917;28;45789;-67
2023/03/25 08:55:53;;;;;;;;;3.33;2.67;;;;;-147.14;100.00;58812.66;5008287;28;53511;-67
2023/03/25 08:58:18;;;;;;;;;4.00;2.00;;;;;-147.14;100.00;58812.66;5011390;28;45444;-67
2023/03/25 09:00:44;;;;;;;;;4.67;1.00;;;;;-147.14;100.00;58812.66;5012659;28;45305;-67
2023/03/25 09:03:09;;;;;;;;;3.67;2.00;;;;;-147.14;100.00;58812.66;5013123;28;46029;-68
2023/03/25 09:05:37;;;;;;;;;1.67;1.00;;;;;-147.14;100.00;58812.66;5017489;28;45441;-67
2023/03/25 09:08:03;;;;;;;;;3.67;1.00;;;;;-147.14;100.00;58812.66;5027341;28;46086;-67
2023/03/25 09:10:28;;;;;;;;;1.00;1.00;;;;;-147.14;100.00;58812.66;5014258;28;45447;-67
2023/03/25 09:12:54;;;;;;;;;2.67;2.67;;;;;-147.14;100.00;58812.66;4991636;28;45363;-68
2023/03/25 09:15:20;;;;;;;;;1.00;1.00;;;;;-147.14;100.00;58812.66;5006308;28;45482;-68
2023/03/25 09:17:45;;;;;;;;;1.33;1.33;;;;;-147.14;100.00;58812.66;5027701;28;46335;-68
2023/03/25 09:20:11;;;;;;;;;0.67;0.67;;;;;-147.14;100.00;58812.66;5015245;28;45506;-67
2023/03/25 09:22:37;;;;;;;;;1.67;0.67;;;;;-147.14;100.00;58812.66;5029332;28;45352;-67
2023/03/25 09:25:02;;;;;;;;;1.00;1.00;;;;;-147.14;100.00;58812.66;5010511;28;45539;-67
2023/03/25 09:27:28;;;;;;;;;0.67;0.00;;;;;-147.14;100.00;58812.66;5026316;28;45293;-67
2023/03/25 09:29:53;;;;;;;;;0.67;0.00;;;;;-147.14;100.00;58812.66;5015781;28;52957;-68
2023/03/25 09:32:19;;;;;;;;;1.67;1.33;;;;;-147.14;100.00;58812.66;5035394;28;45305;-68
2023/03/25 09:34:44;;;;;;;;;2.00;0.67;;;;;-147.14;100.00;58812.66;4995569;28;45524;-68
2023/03/25 09:37:10;;;;;;;;;2.00;0.75;;;;;-147.14;100.00;58812.66;5017435;28;71531;-68
2023/03/25 09:39:36;;;;;;;;;1.00;1.00;;;;;-147.14;100.00;58812.66;5033630;28;45304;-68
2023/03/25 09:42:11;;;;;;;;;1.50;0.50;;;;;-147.14;100.00;58812.66;4995217;28;63965;-67
2023/03/25 09:44:51;;;;;;;;;3.50;1.00;;;;;-147.14;100.00;58812.66;4998998;28;45450;-66
2023/03/25 09:47:19;;;;;;;;;4.50;1.00;;;;;-147.14;100.00;58812.66;5032769;28;45693;-67
2023/03/25 09:49:52;;;;;;;;;2.00;0.75;;;;;-147.14;100.00;58812.66;5020204;28;45269;-68
2023/03/25 09:52:22;;;;;;;;;2.75;1.75;;;;;-147.14;100.00;58812.66;4994518;28;45638;-67
2023/03/25 09:54:51;;;;;;;;;0.50;0.25;;;;;-147.14;100.00;58812.66;5014652;28;45405;-67
2023/03/25 09:57:21;;;;;;;;;2.50;1.75;;;;;-147.14;100.00;58812.66;5016503;28;45607;-67
2023/03/25 09:59:48;;;;;;;;;1.00;0.50;;;;;-147.14;100.00;58812.66;5018379;28;45493;-68
2023/03/25 10:02:39;;;;;;;;;1.50;0.00;;;;;-147.14;100.00;58812.66;5034916;28;45586;-68
2023/03/25 10:05:20;;;;;;;;;2.25;0.00;;;;;-147.14;100.00;58812.66;5013452;28;45453;-68
2023/03/25 10:08:04;;;;;;;;;2.33;2.00;;;;;-147.14;100.00;58812.66;5012759;28;45570;-67
2023/03/25 10:10:44;;;;;;;;;2.00;0.25;;;;;-147.14;100.00;58812.66;5004506;28;45621;-69
2023/03/25 10:13:24;;;;;;;;;2.75;1.00;;;;;-147.14;100.00;58812.66;5024332;28;45330;-68
2023/03/25 10:16:27;;;;;;;;;0.25;0.25;;;;;-147.14;100.00;58812.66;5008489;28;45587;-64
2023/03/25 10:19:40;;;;;;;;;1.00;0.00;;;;;-147.14;100.00;58812.66;5028450;28;45515;-60
2023/03/25 10:22:14;;;;;;;;;1.00;1.00;;;;;-147.14;100.00;58812.66;5009282;28;45510;-66
2023/03/25 10:24:46;;;;;;;;;2.00;2.00;;;;;-147.14;100.00;58812.66;5029685;28;45471;-65
2023/03/25 10:27:18;;;;;;;;;5.00;1.00;;;;;-147.14;100.00;58812.66;5015922;28;45446;-66
2023/03/25 10:29:54;;;;;;;;;2.25;1.00;;;;;-147.14;100.00;58812.66;5000108;28;46250;-65
2023/03/25 10:32:45;;;;;;;;;2.75;0.00;;;;;-147.14;100.00;58812.66;4996747;28;45799;-66
2023/03/25 10:35:16;;;;;;;;;2.25;1.25;;;;;-147.14;100.00;58812.66;4999305;28;45508;-66
2023/03/25 10:37:41;;;;;;;;;3.00;2.00;;;;;-147.14;100.00;58812.66;4992587;28;45592;-66
2023/03/25 10:40:26;;;;;;;;;0.00;0.00;;;;;-147.14;100.00;58812.66;5013272;28;45548;-66
2023/03/25 10:43:10;;;;;;;;;0.25;0.25;;;;;-147.14;100.00;58812.66;4996457;28;45577;-66
2023/03/25 10:45:37;;;;;;;;;2.00;0.50;;;;;-147.14;100.00;58812.66;5030803;28;45599;-65
2023/03/25 10:48:17;;;;;;;;;0.00;0.00;;;;;-147.14;100.00;58812.66;5029056;28;63334;-65
2023/03/25 10:50:43;;;;;;;;;2.25;1.00;;;;;-147.14;100.00;58812.66;5010458;28;46881;-65
2023/03/25 10:53:27;;;;;;;;;2.50;1.00;;;;;-147.14;100.00;58812.66;5013539;28;45378;-66
2023/03/25 10:56:07;;;;;;;;;1.00;1.00;;;;;-147.14;100.00;58812.66;5007518;28;45436;-66
2023/03/25 10:58:33;;;;;;;;;2.25;1.00;;;;;-147.14;100.00;58812.66;5011633;28;45545;-66
2023/03/25 11:01:00;;;;;;;;;2.50;1.00;;;;;-147.14;100.00;58812.66;5011058;28;46504;-66
2023/03/25 11:03:31;;;;;;;;;0.00;0.00;;;;;-147.14;100.00;58812.66;5026317;28;45358;-66
2023/03/25 11:05:56;;;;;;;;;2.00;1.00;;;;;-147.14;100.00;58812.66;5010043;28;45853;-66
2023/03/25 11:08:23;;;;;;;;;0.50;0.50;;;;;-147.14;100.00;58812.66;5013480;28;45555;-66
2023/03/25 11:10:56;;;;;;;;;3.50;1.00;;;;;-147.14;100.00;58812.66;5012937;28;45523;-66
2023/03/25 11:13:27;;;;;;;;;4.25;1.00;;;;;-147.14;100.00;58812.66;5010467;28;45336;-66
2023/03/25 11:15:54;;;;;;;;;0.75;0.75;;;;;-147.14;100.00;58812.66;5007832;28;45517;-66
2023/03/25 11:18:26;;;;;;;;;4.25;1.00;;;;;-147.14;100.00;58812.66;5005242;28;45488;-67
2023/03/25 11:20:55;;;;;;;;;3.00;1.25;;;;;-147.14;100.00;58812.66;5016238;28;45367;-66
2023/03/25 11:23:34;;;;;;;;;3.50;2.00;;;;;-147.14;100.00;58812.66;5011277;28;45704;-66
2023/03/25 11:26:12;;;;;;;;;1.00;1.00;;;;;-147.14;100.00;58812.66;5008907;28;45463;-65
2023/03/25 11:28:44;;;;;;;;;0.25;0.25;;;;;-147.14;100.00;58812.66;5019144;28;45490;-66
2023/03/25 11:31:16;;;;;;;;;2.00;1.50;;;;;-147.14;100.00;58812.66;5015172;28;45404;-65
2023/03/25 11:33:44;;;;;;;;;1.50;1.00;;;;;-147.14;100.00;58812.66;5011148;28;45420;-66
2023/03/25 11:36:23;;;;;;;;;0.25;0.25;;;;;-147.14;100.00;58812.66;5026024;28;45506;-66
2023/03/25 11:38:59;;;;;;;;;2.00;1.00;;;;;-147.14;100.00;58812.66;5007346;28;45386;-66
2023/03/25 11:41:30;;;;;;;;;4.00;1.00;;;;;-147.14;100.00;58812.66;5011816;28;48187;-66
2023/03/25 11:43:56;;;;;;;;;3.00;1.25;;;;;-147.14;100.00;58812.66;4996742;28;45441;-66
2023/03/25 11:46:22;;;;;;;;;2.00;2.00;;;;;-147.14;100.00;58812.66;5017854;28;45322;-66
2023/03/25 11:48:49;;;;;;;;;3.50;1.00;;;;;-147.14;100.00;58812.66;5006283;28;45707;-65
2023/03/25 11:51:32;;;;;;;;;2.00;0.25;;;;;-147.14;100.00;58812.66;5009750;28;46194;-65
2023/03/25 11:54:00;;;;;;;;;3.50;2.00;;;;;-147.14;100.00;58812.66;5012908;28;45461;-66
2023/03/25 11:56:38;;;;;;;;;1.00;1.00;;;;;-147.14;100.00;58812.66;5013587;28;45347;-66
2023/03/25 11:59:35;;;;;;;;;1.75;1.00;;;;;-147.14;100.00;58812.66;5009282;28;45573;-66
2023/03/25 12:02:12;;;;;;;;;3.75;1.50;;;;;-147.14;100.00;58812.66;5013255;28;47433;-66
2023/03/25 12:04:37;;;;;;;;;1.00;1.00;;;;;-147.14;100.00;58812.66;5017277;28;45450;-66
2023/03/25 12:07:08;;;;;;;;;7.00;1.25;;;;;-147.14;100.00;58812.66;5031777;28;60533;-67
2023/03/25 12:09:34;;;;;;;;;6.50;3.75;;;;;-147.14;100.00;58812.66;5013172;28;45516;-65
2023/03/25 12:12:34;;;;;;;;;0.00;0.00;;;;;-147.14;100.00;58812.66;5006000;28;47439;-66
2023/03/25 12:15:13;;;;;;;;;2.00;0.00;;;;;-147.14;100.00;58812.66;5037788;28;45316;-67
2023/03/25 12:17:47;;;;;;;;;0.50;0.50;;;;;-147.14;100.00;58812.66;5012397;28;45371;-66
2023/03/25 12:20:24;;;;;;;;;0.50;0.50;;;;;-147.14;100.00;58812.66;5039839;28;45287;-67
2023/03/25 12:23:00;;;;;;;;;1.25;0.00;;;;;-147.14;100.00;58812.66;5017343;28;46477;-66
2023/03/25 12:25:56;;;;;;;;;1.00;1.00;;;;;-147.14;100.00;58812.66;5030891;28;45320;-67
2023/03/25 12:28:47;;;;;;;;;0.25;0.25;;;;;-147.14;100.00;58812.66;5035843;28;45608;-67
2023/03/25 12:31:37;;;;;;;;;1.00;0.00;;;;;-147.14;100.00;58812.66;5039494;28;45291;-66
2023/03/25 12:34:05;;;;;;;;;2.00;0.00;;;;;-147.14;100.00;58812.66;5031676;28;47186;-67
2023/03/25 12:36:52;;;;;;;;;2.00;0.25;;;;;-147.14;100.00;58812.66;5038206;28;45776;-67
2023/03/25 12:39:37;;;;;;;;;6.75;1.00;;;;;-147.14;100.00;58812.66;5028693;28;45285;-67
2023/03/25 12:42:11;;;;;;;;;2.25;0.00;;;;;-147.14;100.00;58812.66;5011507;28;45333;-67
2023/03/25 12:44:41;;;;;;;;;2.75;0.00;;;;;-147.14;100.00;58812.66;5036877;28;46561;-66
2023/03/25 12:47:15;;;;;;;;;3.00;1.00;;;;;-147.14;100.00;58812.66;5010196;28;45385;-67
2023/03/25 12:49:58;;;;;;;;;2.00;2.00;;;;;-147.14;100.00;58812.66;5033712;28;45275;-67
2023/03/25 12:52:23;;;;;;;;;3.00;1.00;;;;;-147.14;100.00;58812.66;5032474;28;45426;-67
2023/03/25 12:55:07;;;;;;;;;1.50;0.00;;;;;-147.14;100.00;58812.66;5013865;28;46721;-65
2023/03/25 12:57:55;;;;;;;;;3.00;1.75;;;;;-147.14;100.00;58812.66;5029290;28;45494;-66
2023/03/25 13:00:52;;;;;;;;;1.00;0.50;;;;;-147.14;100.00;58812.66;4987972;28;45500;-67
2023/03/25 13:03:32;;;;;;;;;2.50;2.00;;;;;-147.14;100.00;58812.66;5039179;28;45525;-67
2023/03/25 13:06:29;;;;;;;;;1.50;0.50;;;;;-147.14;100.00;58812.66;5039333;28;46523;-65
2023/03/25 13:09:12;;;;;;;;;1.00;1.00;;;;;-147.14;100.00;58812.66;4996579;28;45423;-66
2023/03/25 13:11:44;;;;;;;;;5.00;0.00;;;;;-147.14;100.00;58812.66;5007994;28;45308;-65
2023/03/25 13:14:34;;;;;;;;;1.00;1.00;;;;;-147.14;100.00;58812.66;5017045;28;45468;-65
2023/03/25 13:17:04;;;;;;;;;1.75;0.00;;;;;-147.14;100.00;58812.66;5019518;28;45582;-66
2023/03/25 13:19:33;;;;;;;;;2.00;1.00;;;;;-147.14;100.00;58812.66;5004674;28;45282;-66
2023/03/25 13:22:30;;;;;;;;;1.00;1.00;;;;;-147.14;100.00;58812.66;5020463;28;45487;-65
2023/03/25 13:25:02;;;;;;;;;1.00;1.00;;;;;-147.14;100.00;58812.66;5003158;28;45652;-66
2023/03/25 13:27:33;;;;;;;;;1.00;1.00;;;;;-147.14;100.00;58812.66;5019856;28;47018;-65
2023/03/25 13:29:59;;;;;;;;;1.67;1.67;;;;;-147.14;100.00;58812.66;5004676;28;45568;-66
2023/03/25 13:32:39;;;;;;;;;3.00;2.00;;;;;-147.14;100.00;58812.66;5010295;28;63419;-65
2023/03/25 13:35:35;;;;;;;;;2.67;1.67;;;;;-147.14;100.00;58812.66;5009628;28;45318;-65
2023/03/25 13:38:03;;;;;;;;;1.00;0.67;;;;;-147.14;100.00;58812.66;5012044;28;46825;-65
2023/03/25 13:40:42;;;;;;;;;2.00;2.00;;;;;-147.14;100.00;58812.66;5014677;28;45508;-66
2023/03/25 13:43:13;;;;;;;;;2.67;1.00;;;;;-147.14;100.00;58812.66;5019591;28;45398;-66
2023/03/25 13:45:59;;;;;;;;;5.00;2.33;;;;;-147.14;100.00;58812.66;5019668;28;45512;-65
2023/03/25 13:48:39;;;;;;;;;5.67;1.00;;;;;-147.14;100.00;58812.66;5020574;28;46229;-66
2023/03/25 13:51:06;;;;;;;;;4.50;1.00;;;;;-147.14;100.00;58812.66;5001729;28;45333;-66
2023/03/25 13:53:36;;;;;;;;;3.00;1.00;;;;;-147.14;100.00;58812.66;5005281;28;45263;-66
2023/03/25 13:56:05;;;;;;;;;3.33;2.00;;;;;-147.14;100.00;58812.66;5017917;28;46714;-66
2023/03/25 13:58:55;;;;;;;;;2.00;1.00;;;;;-147.14;100.00;58812.66;5037095;28;46081;-65
2023/03/25 14:01:37;;;;;;;;;3.00;0.33;;;;;-147.14;100.00;58812.66;5007080;28;45459;-65
2023/03/25 14:04:24;;;;;;;;;2.00;2.00;;;;;-147.14;100.00;58812.66;5023107;28;45400;-66
2023/03/25 14:07:13;;;;;;;;;3.33;1.00;;;;;-147.14;100.00;58812.66;5026272;28;45430;-67
2023/03/25 14:10:00;;;;;;;;;2.00;1.00;;;;;-147.14;100.00;58812.66;5020894;28;45519;-66
2023/03/25 14:12:32;;;;;;;;;2.00;2.00;;;;;-147.14;100.00;58812.66;5025837;28;45308;-65
2023/03/25 14:15:05;;;;;;;;;1.00;1.00;;;;;-147.14;100.00;58812.66;5036524;28;45372;-67
2023/03/25 14:17:33;;;;;;;;;1.00;0.67;;;;;-147.14;100.00;58812.66;5011273;28;45375;-67
2023/03/25 14:19:59;;;;;;;;;2.67;0.33;;;;;-147.14;100.00;58812.66;5016786;28;46884;-66
2023/03/25 14:22:30;;;;;;;;;1.00;1.00;;;;;-147.14;100.00;58812.66;5018266;28;45339;-66
2023/03/25 14:24:56;;;;;;;;;3.67;2.00;;;;;-147.14;100.00;58812.66;4998889;28;45317;-66
2023/03/25 14:27:28;;;;;;;;;0.67;0.67;;;;;-147.14;100.00;58812.66;5013429;28;45745;-66
2023/03/25 14:30:01;;;;;;;;;1.67;1.67;;;;;-147.14;100.00;58812.66;5015414;28;46874;-66
2023/03/25 14:32:31;;;;;;;;;2.00;1.00;;;;;-147.14;100.00;58812.66;5009892;28;45542;-66
2023/03/25 14:35:31;;;;;;;;;1.33;1.00;;;;;-147.14;100.00;58812.66;5030709;28;45856;-66
2023/03/25 14:38:08;;;;;;;;;1.00;1.00;;;;;-147.14;100.00;58812.66;5031067;28;45767;-66
2023/03/25 14:40:45;;;;;;;;;1.67;1.00;;;;;-147.14;100.00;58812.66;5022269;28;45434;-65
2023/03/25 14:43:25;;;;;;;;;2.33;1.00;;;;;-147.14;100.00;58812.66;5033516;28;45481;-65
2023/03/25 14:46:12;;;;;;;;;1.00;0.67;;;;;-147.14;100.00;58812.66;5031488;28;45527;-65
2023/03/25 14:48:44;;;;;;;;;1.00;1.00;;;;;-147.14;100.00;58812.66;5037936;28;45448;-66
2023/03/25 14:51:21;;;;;;;;;1.67;1.67;;;;;-147.14;100.00;58812.66;5019695;28;45384;-66
2023/03/25 14:53:52;;;;;;;;;1.00;1.00;;;;;-147.14;100.00;58812.66;5014788;28;45298;-66
2023/03/25 14:56:22;;;;;;;;;1.00;1.00;;;;;-147.14;100.00;58812.66;5013033;28;45704;-66
2023/03/25 14:58:52;;;;;;;;;0.33;0.33;;;;;-147.14;100.00;58812.66;5037435;28;45431;-65
2023/03/25 15:01:19;;;;;;;;;2.00;1.00;;;;;-147.14;100.00;58812.66;5018525;28;46497;-65
2023/03/25 15:03:47;;;;;;;;;1.00;1.00;;;;;-147.14;100.00;58812.66;5027637;28;45462;-65
2023/03/25 15:06:16;;;;;;;;;2.00;0.33;;;;;-147.14;100.00;58812.66;5019579;28;45450;-65
2023/03/25 15:08:50;;;;;;;;;2.33;1.00;;;;;-147.14;100.00;58812.66;5020646;28;45576;-65
2023/03/25 15:11:23;;;;;;;;;2.67;1.00;;;;;-147.14;100.00;58812.66;5014197;28;46984;-65
2023/03/25 15:13:55;;;;;;;;;1.00;1.00;;;;;-147.14;100.00;58812.66;5029778;28;45747;-66
2023/03/25 15:16:26;;;;;;;;;1.67;1.00;;;;;-147.14;100.00;58812.66;5016143;28;45472;-65
2023/03/25 15:18:51;;;;;;;;;0.00;0.00;;;;;-147.14;100.00;58812.66;5009367;28;45486;-66
2023/03/25 15:21:17;;;;;;;;;3.00;1.00;;;;;-147.14;100.00;58812.66;5032028;28;45416;-65
2023/03/25 15:23:46;;;;;;;;;1.33;1.00;;;;;-147.14;100.00;58812.66;5023517;28;45414;-66
2023/03/25 15:26:26;;;;;;;;;1.33;1.00;;;;;-147.14;100.00;58812.66;5036290;28;45312;-66
2023/03/25 15:29:27;;;;;;;;;3.67;2.00;;;;;-147.14;100.00;58812.66;5029994;28;45379;-67
2023/03/25 15:32:16;;;;;;;;;1.00;0.33;;;;;-147.14;100.00;58812.66;5031892;28;45427;-66
2023/03/25 15:35:10;;;;;;;;;2.00;2.00;;;;;-147.14;100.00;58812.66;5040875;28;45375;-66
2023/03/25 15:38:01;;;;;;;;;1.33;1.33;;;;;-147.14;100.00;58812.66;4998546;28;45442;-66
2023/03/25 15:40:48;;;;;;;;;1.00;1.00;;;;;-147.14;100.00;58812.66;5001734;28;45488;-66
2023/03/25 15:43:52;;;;;;;;;8.67;6.33;;;;;-147.14;100.00;58812.66;5024579;28;46413;-66
2023/03/25 15:46:45;;;;;;;;;3.00;1.67;;;;;-147.14;100.00;58812.66;5021823;28;45373;-66
2023/03/25 15:49:40;;;;;;;;;6.00;2.67;;;;;-147.14;100.00;58812.66;5036920;28;45234;-67
2023/03/25 15:52:31;;;;;;;;;4.00;2.00;;;;;-147.14;100.00;58812.66;5018516;28;45381;-65
2023/03/25 15:55:06;;;;;;;;;1.00;1.00;;;;;-147.14;100.00;58812.66;5013933;28;45813;-65
2023/03/25 15:57:36;;;;;;;;;3.00;0.67;;;;;-147.14;100.00;58812.66;5015719;28;45405;-66
2023/03/25 16:00:13;;;;;;;;;2.67;1.33;;;;;-147.14;100.00;58812.66;4999349;28;45260;-66
2023/03/25 16:02:46;;;;;;;;;2.00;2.00;;;;;-147.14;100.00;58812.66;5015254;28;45602;-66
2023/03/25 16:05:16;;;;;;;;;3.67;1.00;;;;;-147.14;100.00;58812.66;5007937;28;46887;-66
2023/03/25 16:07:42;;;;;;;;;9.67;0.00;;;;;-147.14;100.00;58812.66;5034943;28;45376;-65
2023/03/25 16:10:17;;;;;;;;;1.00;1.00;;;;;-147.14;100.00;58812.66;5020410;28;45386;-67
2023/03/25 16:12:45;;;;;;;;;2.33;1.00;;;;;-147.14;100.00;58812.66;5006119;28;45389;-66
2023/03/25 16:15:17;;;;;;;;;1.00;1.00;;;;;-147.14;100.00;58812.66;5025744;28;47484;-66
2023/03/25 16:17:45;;;;;;;;;1.67;1.00;;;;;-147.14;100.00;58812.66;5038579;28;45458;-66
2023/03/25 16:20:17;;;;;;;;;4.67;2.00;;;;;-147.14;100.00;58812.66;5022174;28;45394;-65
2023/03/25 16:22:47;;;;;;;;;1.00;1.00;;;;;-147.14;100.00;58812.66;5022646;28;45326;-66
2023/03/25 16:25:16;;;;;;;;;1.33;0.67;;;;;-147.14;100.00;58812.66;5018852;28;45462;-66
2023/03/25 16:27:44;;;;;;;;;6.00;1.00;;;;;-147.14;100.00;58812.66;5024093;28;47991;-66
2023/03/25 16:30:21;;;;;;;;;0.33;0.33;;;;;-147.14;100.00;58812.66;5038737;28;45372;-67
2023/03/25 16:32:46;;;;;;;;;1.00;1.00;;;;;-147.14;100.00;58812.66;4994412;28;45502;-65
2023/03/25 16:35:26;;;;;;;;;2.33;1.67;;;;;-147.14;100.00;58812.66;5039462;28;45545;-65
2023/03/25 16:37:58;;;;;;;;;3.33;2.00;;;;;-147.14;100.00;58812.66;5030347;28;45733;-67
2023/03/25 16:40:39;;;;;;;;;4.67;1.67;;;;;-147.14;100.00;58812.66;5038240;28;64514;-65
2023/03/25 16:43:07;;;;;;;;;1.00;1.00;;;;;-147.14;100.00;58812.66;5003782;28;45436;-67
2023/03/25 16:45:34;;;;;;;;;4.00;1.00;;;;;-147.14;100.00;58812.66;5002145;28;45546;-66
2023/03/25 16:48:05;;;;;;;;;1.00;1.00;;;;;-147.14;100.00;58812.66;5003832;28;45467;-67
2023/03/25 16:50:31;;;;;;;;;6.00;3.00;;;;;-147.14;100.00;58812.66;5002871;28;45472;-65
2023/03/25 16:53:01;;;;;;;;;2.33;1.00;;;;;-147.14;100.00;58812.66;5005926;28;69211;-66
2023/03/25 16:55:47;;;;;;;;;0.67;0.67;;;;;-147.14;100.00;58812.66;5004168;28;46533;-65
2023/03/25 16:58:16;;;;;;;;;0.67;0.67;;;;;-147.14;100.00;58812.66;5030206;28;45739;-67
2023/03/25 17:00:42;;;;;;;;;1.00;1.00;;;;;-147.14;100.00;58812.66;5035009;28;45166;-65
2023/03/25 17:03:13;;;;;;;;;1.00;0.67;;;;;-147.14;100.00;58812.66;5035896;28;45559;-65
2023/03/25 17:06:00;;;;;;;;;2.00;2.00;;;;;-147.14;100.00;58812.66;5014851;28;45536;-65
2023/03/25 17:08:26;;;;;;;;;1.33;1.33;;;;;-147.14;100.00;58812.66;4996772;28;45311;-67
2023/03/25 17:10:54;;;;;;;;;0.00;0.00;;;;;-147.14;100.00;58812.66;5030920;28;45471;-64
2023/03/25 17:14:07;;;;;;;;;1.67;1.00;;;;;-147.14;100.00;58812.66;5023246;28;45579;-66
2023/03/25 17:16:35;;;;;;;;;2.00;2.00;;;;;-147.14;100.00;58812.66;4927897;28;48028;-65
2023/03/25 17:19:01;;;;;;;;;1.33;1.33;;;;;-147.14;100.00;58812.66;5022817;28;45468;-61
2023/03/25 17:21:29;;;;;;;;;2.67;1.67;;;;;-147.14;100.00;58812.66;5020504;28;45435;-62
2023/03/25 17:23:58;;;;;;;;;3.67;3.00;;;;;-147.14;100.00;58812.66;5009232;28;45395;-61
2023/03/25 17:26:25;;;;;;;;;2.00;2.00;;;;;-147.14;100.00;58812.66;5003858;28;46960;-61
2023/03/25 17:28:53;;;;;;;;;30.33;29.00;;;;;-147.14;100.00;58812.66;5011048;28;45924;-61
2023/03/25 17:31:24;;;;;;;;;3.00;3.00;;;;;-147.14;100.00;58812.66;5025450;28;45251;-61
2023/03/25 17:34:16;;;;;;;;;4.67;2.00;;;;;-147.14;100.00;58812.66;5009935;28;45601;-61
2023/03/25 17:36:44;;;;;;;;;2.33;2.00;;;;;-147.14;100.00;58812.66;5030088;28;45513;-62